Time;durP1;ratioP1;P1;durP2;ratioP2;P2;SDS_P1;SDS_P2;PMS_P1;PMS_P2;Temp;Humidity;BMP_temperature;BMP_pressure;BME280_temperature;BME280_humidity;BME280_pressure;Samples;Min_cycle;Max_cycle;Signal;HPM_P1;HPM_P2
2022/06/08 00:00:15;;;;;;;1.58;0.90;;;;;;;17.07;63.35;99143.44;5026865;28;20427;-43
2022/06/08 00:02:45;;;;;;;2.22;0.85;;;;;;;17.02;64.19;99133.13;5032951;28;20064;-51
2022/06/08 00:05:13;;;;;;;1.58;0.70;;;;;;;16.95;64.67;99137.78;5034405;28;20045;-44
2022/06/08 00:07:39;;;;;;;3.25;1.20;;;;;;;16.91;64.18;99141.44;5035153;28;20048;-51
2022/06/08 00:10:08;;;;;;;2.00;0.90;;;;;;;16.89;64.65;99143.28;5035614;28;20132;-45
2022/06/08 00:12:36;;;;;;;2.58;0.93;;;;;;;16.82;64.31;99126.19;5031448;28;20053;-50
2022/06/08 00:15:07;;;;;;;1.98;1.13;;;;;;;16.83;64.58;99127.88;5033866;28;20057;-48
2022/06/08 00:17:34;;;;;;;1.65;0.70;;;;;;;16.78;64.86;99119.34;5054049;28;20048;-49
2022/06/08 00:20:02;;;;;;;3.40;0.80;;;;;;;16.72;65.54;99120.47;5038262;28;20091;-45
2022/06/08 00:22:29;;;;;;;2.10;0.82;;;;;;;16.69;65.05;99121.47;5031149;28;20100;-51
2022/06/08 00:24:56;;;;;;;1.67;0.80;;;;;;;16.67;65.40;99117.22;5035268;28;20091;-47
2022/06/08 00:27:22;;;;;;;4.32;1.15;;;;;;;16.61;65.24;99101.81;5039498;28;20045;-46
2022/06/08 00:29:49;;;;;;;3.53;1.48;;;;;;;16.52;66.08;99103.88;5033645;28;20170;-46
2022/06/08 00:32:17;;;;;;;5.25;1.20;;;;;;;16.47;65.99;99094.53;5037746;28;20053;-47
2022/06/08 00:34:44;;;;;;;4.70;1.42;;;;;;;16.40;66.48;99100.03;5041646;28;20661;-46
2022/06/08 00:37:11;;;;;;;3.58;1.15;;;;;;;16.42;66.60;99105.19;5047128;28;20049;-46
2022/06/08 00:39:38;;;;;;;3.88;1.15;;;;;;;16.40;66.66;99094.81;5035812;28;20056;-44
2022/06/08 00:42:08;;;;;;;3.10;1.35;;;;;;;16.40;66.65;99100.03;5035222;28;20493;-51
2022/06/08 00:47:24;;;;;;;4.50;1.42;;;;;;;16.29;68.33;99081.34;5021858;28;20435;-49
2022/06/08 00:49:57;;;;;;;4.80;1.67;;;;;;;16.32;67.38;99086.44;5011520;28;20421;-43
2022/06/08 00:52:25;;;;;;;2.70;1.08;;;;;;;16.32;67.64;99078.63;5011967;28;20053;-45
2022/06/08 00:54:57;;;;;;;5.40;1.42;;;;;;;16.31;67.92;99084.72;5007268;28;20046;-47
2022/06/08 00:57:31;;;;;;;6.50;1.73;;;;;;;16.29;68.11;99086.56;5010559;28;20061;-45
2022/06/08 01:00:07;;;;;;;2.78;1.13;;;;;;;16.28;67.87;99077.88;5006932;28;20137;-44
2022/06/08 01:02:34;;;;;;;2.65;1.67;;;;;;;16.30;68.27;99073.44;4999306;28;20054;-46
2022/06/08 01:08:02;;;;;;;5.20;2.20;;;;;;;16.34;67.85;99074.16;5028852;27;20409;-44
2022/06/08 01:10:39;;;;;;;4.75;1.52;;;;;;;16.32;67.82;99070.78;5001015;28;20096;-43
2022/06/08 01:13:06;;;;;;;3.35;1.63;;;;;;;16.30;68.73;99069.97;5015859;28;20053;-46
2022/06/08 01:15:36;;;;;;;5.03;1.55;;;;;;;16.31;68.34;99064.69;5010543;28;20105;-45
2022/06/08 01:18:05;;;;;;;5.90;1.98;;;;;;;16.33;68.35;99064.63;5010405;28;20050;-48
2022/06/08 01:20:32;;;;;;;3.70;1.50;;;;;;;16.33;68.43;99054.16;5006176;28;20128;-43
2022/06/08 01:23:00;;;;;;;4.13;2.13;;;;;;;16.29;69.02;99056.09;5008195;28;20056;-41
2022/06/08 01:25:36;;;;;;;5.05;1.77;;;;;;;16.26;69.24;99050.97;5003106;28;20042;-46
2022/06/08 01:28:22;;;;;;;8.85;2.10;;;;;;;16.23;69.19;99055.47;5008577;28;20112;-49
2022/06/08 01:31:00;;;;;;;4.30;1.73;;;;;;;16.23;68.94;99050.25;5009703;28;20553;-43
2022/06/08 01:39:24;;;;;;;5.10;3.85;;;;;;;16.22;69.49;99033.75;5055335;27;20394;-44
2022/06/08 01:47:47;;;;;;;5.20;2.22;;;;;;;16.30;70.55;99004.66;5077196;27;20394;-46
2022/06/08 02:10:28;;;;;;;4.03;2.03;;;;;;;15.86;71.66;98980.34;5027486;28;20410;-42
2022/06/08 02:13:00;;;;;;;3.63;1.80;;;;;;;15.88;71.90;98977.66;5002600;28;20058;-46
2022/06/08 02:18:09;;;;;;;4.38;3.15;;;;;;;15.85;72.31;98973.44;5061847;28;20921;-49
2022/06/08 02:20:44;;;;;;;3.55;2.15;;;;;;;15.84;72.20;98974.31;4984151;28;20058;-49
2022/06/08 02:23:18;;;;;;;4.53;2.47;;;;;;;15.89;71.82;98963.69;4992203;28;20109;-47
2022/06/08 02:25:51;;;;;;;2.58;2.05;;;;;;;15.87;71.82;98961.16;5000352;28;20080;-46
2022/06/08 02:28:25;;;;;;;2.67;1.92;;;;;;;15.83;72.29;98956.97;4993897;28;20054;-46
2022/06/08 02:30:57;;;;;;;1.90;1.23;;;;;;;15.82;71.94;98952.66;4997188;28;20441;-45
2022/06/08 02:36:21;;;;;;;2.20;1.77;;;;;;;15.79;72.63;98931.91;4984438;28;20058;-43
2022/06/08 02:38:55;;;;;;;3.42;1.80;;;;;;;15.77;72.34;98923.31;5001026;28;20140;-44
2022/06/08 02:41:26;;;;;;;2.47;1.80;;;;;;;15.76;72.81;98921.59;4993089;28;20108;-45
2022/06/08 02:43:58;;;;;;;2.90;1.92;;;;;;;15.77;72.65;98923.31;4994643;28;20053;-45
2022/06/08 02:46:39;;;;;;;2.00;0.90;;;;;;;15.74;72.84;98923.44;5002181;28;20316;-49
2022/06/08 02:49:07;;;;;;;2.30;1.80;;;;;;;15.75;72.81;98914.69;4997205;28;20076;-45
2022/06/08 02:51:34;;;;;;;1.58;1.30;;;;;;;15.71;73.06;98915.72;4998280;28;20116;-45
2022/06/08 02:54:04;;;;;;;1.80;1.63;;;;;;;15.65;73.75;98920.28;5000213;28;20474;-46
2022/06/08 03:02:32;;;;;;;1.70;0.93;;;;;;;15.72;73.55;98904.34;5027390;27;20418;-43
2022/06/08 03:05:11;;;;;;;3.10;1.00;;;;;;;15.76;73.78;98900.69;5007976;28;20119;-43
2022/06/08 03:07:44;;;;;;;3.80;1.23;;;;;;;15.74;74.10;98902.53;5017328;28;20100;-42
2022/06/08 03:10:14;;;;;;;1.50;0.90;;;;;;;15.77;73.48;98902.41;5019695;28;20041;-44
2022/06/08 03:12:48;;;;;;;;;;;;;;;15.60;74.14;98901.34;5018979;28;21768;-40
2022/06/08 03:15:16;;;;;;;3.08;1.10;;;;;;;15.75;73.26;98899.00;5020976;28;20548;-44
2022/06/08 03:17:47;;;;;;;5.18;1.67;;;;;;;15.69;74.27;98881.84;5019515;28;20057;-42
2022/06/08 03:20:14;;;;;;;2.30;1.13;;;;;;;15.63;74.47;98882.97;5011938;28;20041;-44
2022/06/08 03:22:40;;;;;;;3.17;1.67;;;;;;;15.62;74.44;98883.88;5019868;28;20413;-43
2022/06/08 03:25:07;;;;;;;2.83;1.20;;;;;;;15.65;73.87;98883.75;5020306;28;20045;-42
2022/06/08 03:27:37;;;;;;;2.22;1.20;;;;;;;15.64;74.04;98876.81;5018714;28;20053;-43
2022/06/08 03:30:06;;;;;;;3.03;1.23;;;;;;;15.67;74.28;98870.63;5019217;28;20061;-45
2022/06/08 03:32:32;;;;;;;2.42;1.40;;;;;;;15.62;74.19;98873.44;5018490;28;20192;-44
2022/06/08 03:34:59;;;;;;;2.28;1.20;;;;;;;15.64;74.12;98866.38;5019845;28;20057;-46
2022/06/08 03:37:25;;;;;;;2.30;1.15;;;;;;;15.62;74.82;98862.16;5019674;28;20104;-47
2022/06/08 03:39:52;;;;;;;2.25;1.30;;;;;;;15.65;74.04;98852.44;5023406;28;20068;-42
2022/06/08 03:42:19;;;;;;;3.83;1.08;;;;;;;15.69;74.42;98850.53;5016386;28;20490;-43
2022/06/08 03:44:46;;;;;;;2.03;1.25;;;;;;;15.70;74.27;98851.38;5019954;28;20050;-46
2022/06/08 03:47:18;;;;;;;3.22;1.10;;;;;;;15.74;74.52;98860.78;5013949;28;20058;-42
2022/06/08 03:49:45;;;;;;;2.75;1.20;;;;;;;15.72;73.74;98858.22;5019842;28;20096;-41
2022/06/08 03:52:18;;;;;;;3.38;1.00;;;;;;;15.75;73.68;98857.25;5017051;28;20053;-43
2022/06/08 03:54:50;;;;;;;2.10;1.10;;;;;;;15.74;73.98;98866.00;5011251;28;20131;-44
2022/06/08 03:57:34;;;;;;;2.60;1.17;;;;;;;15.76;73.88;98864.16;5018226;28;20405;-45
2022/06/08 04:00:04;;;;;;;3.00;1.30;;;;;;;15.76;74.07;98858.94;5019401;28;20054;-41
2022/06/08 04:02:32;;;;;;;1.92;1.00;;;;;;;15.77;74.16;98858.03;5019304;28;20052;-48
2022/06/08 04:04:58;;;;;;;2.47;1.25;;;;;;;15.78;73.74;98851.91;5019555;28;20076;-43
2022/06/08 04:07:25;;;;;;;1.90;1.25;;;;;;;15.80;74.00;98855.28;5020307;28;20505;-41
2022/06/08 04:09:52;;;;;;;2.70;1.23;;;;;;;15.81;74.01;98851.78;5018380;28;20501;-47
2022/06/08 04:12:22;;;;;;;2.30;1.25;;;;;;;15.80;74.39;98857.88;5008514;28;20046;-45
2022/06/08 04:14:50;;;;;;;2.05;1.20;;;;;;;15.83;73.86;98849.94;5001438;28;20538;-42
2022/06/08 04:17:18;;;;;;;2.88;1.10;;;;;;;15.86;74.25;98860.25;5006251;28;20108;-47
2022/06/08 04:19:47;;;;;;;1.95;1.13;;;;;;;15.88;73.38;98853.16;5003909;28;20113;-41
2022/06/08 04:22:16;;;;;;;;;;;;;;;15.72;74.21;98855.63;5003316;28;20074;-44
2022/06/08 04:24:43;;;;;;;3.38;1.55;;;;;;;15.87;74.14;98854.09;5006620;28;20549;-42
2022/06/08 04:27:10;;;;;;;2.83;1.33;;;;;;;15.92;73.49;98859.13;5003343;28;20046;-43
2022/06/08 04:29:38;;;;;;;2.33;1.10;;;;;;;15.94;73.75;98852.91;5002479;28;20054;-44
2022/06/08 04:32:09;;;;;;;1.98;1.50;;;;;;;15.96;74.15;98852.88;5003478;28;20493;-50
2022/06/08 04:34:39;;;;;;;2.50;1.42;;;;;;;15.98;73.28;98858.03;5002328;28;20050;-41
2022/06/08 04:37:06;;;;;;;2.58;1.20;;;;;;;15.98;73.82;98863.25;5005245;28;20049;-47
2022/06/08 04:39:33;;;;;;;2.42;1.10;;;;;;;16.00;73.24;98861.41;5006645;28;20156;-44
2022/06/08 04:42:00;;;;;;;3.05;1.27;;;;;;;16.02;73.12;98864.81;5002682;28;20106;-42
2022/06/08 04:44:45;;;;;;;2.45;1.30;;;;;;;16.03;73.44;98862.13;5007340;28;20188;-48
2022/06/08 04:47:11;;;;;;;3.30;1.42;;;;;;;16.06;73.68;98869.00;4997229;28;20709;-45
2022/06/08 04:49:38;;;;;;;4.57;1.67;;;;;;;16.09;73.20;98865.38;5001858;28;20065;-45
2022/06/08 04:52:05;;;;;;;3.47;1.75;;;;;;;16.11;73.50;98864.41;4998549;28;20068;-45
2022/06/08 04:54:32;;;;;;;3.78;1.67;;;;;;;16.12;73.16;98870.47;4998813;28;20112;-45
2022/06/08 04:57:00;;;;;;;4.15;2.10;;;;;;;16.13;73.55;98862.56;5001640;28;20856;-46
2022/06/08 04:59:27;;;;;;;4.13;1.55;;;;;;;16.13;73.63;98865.19;4999166;28;20060;-46
2022/06/08 05:01:54;;;;;;;4.22;1.80;;;;;;;16.16;73.26;98857.22;5005321;28;20049;-41
2022/06/08 05:04:20;;;;;;;4.63;1.83;;;;;;;16.20;73.10;98865.75;4996205;28;20132;-46
2022/06/08 05:06:47;;;;;;;5.05;1.52;;;;;;;16.22;73.30;98855.25;5001367;28;20054;-42
2022/06/08 05:09:14;;;;;;;2.10;1.25;;;;;;;16.26;73.85;98864.63;5009139;28;20046;-44
2022/06/08 05:11:41;;;;;;;1.70;1.08;;;;;;;16.27;73.80;98858.47;5004153;28;20108;-45
2022/06/08 05:14:07;;;;;;;2.15;1.20;;;;;;;16.30;73.59;98863.56;5004779;28;20054;-44
2022/06/08 05:16:34;;;;;;;1.98;0.90;;;;;;;16.32;73.19;98856.53;5005302;28;20042;-49
2022/06/08 05:19:01;;;;;;;1.63;0.80;;;;;;;16.36;73.53;98852.84;5006700;28;20046;-47
2022/06/08 05:21:27;;;;;;;2.53;1.23;;;;;;;16.41;73.52;98855.22;5007506;28;20493;-42
2022/06/08 05:23:54;;;;;;;3.85;1.33;;;;;;;16.43;73.21;98849.03;5005186;28;20050;-44
2022/06/08 05:26:20;;;;;;;3.13;1.20;;;;;;;16.45;72.95;98857.63;5003537;28;20096;-42
2022/06/08 05:28:47;;;;;;;1.98;0.80;;;;;;;16.48;73.06;98858.44;5005886;28;20038;-42
2022/06/08 05:31:14;;;;;;;1.77;0.95;;;;;;;16.52;73.26;98857.38;5007220;28;20057;-49
2022/06/08 05:33:42;;;;;;;2.75;0.82;;;;;;;16.56;72.84;98859.75;5005856;28;20064;-45
2022/06/08 05:36:10;;;;;;;1.45;0.85;;;;;;;16.60;73.65;98860.47;5007445;28;20045;-45
2022/06/08 05:38:36;;;;;;;1.95;1.10;;;;;;;16.64;73.21;98867.25;5007383;28;20509;-43
2022/06/08 05:41:03;;;;;;;2.42;1.00;;;;;;;16.69;72.99;98867.03;5005363;28;20100;-44
2022/06/08 05:43:30;;;;;;;3.00;1.35;;;;;;;16.70;72.41;98866.97;5007239;28;20100;-48
2022/06/08 05:45:56;;;;;;;3.97;0.95;;;;;;;16.75;72.47;98863.28;5008074;28;20049;-45
2022/06/08 05:48:23;;;;;;;1.65;0.75;;;;;;;16.79;72.68;98864.81;5000333;28;20045;-46
2022/06/08 05:50:50;;;;;;;2.70;1.67;;;;;;;16.82;72.46;98857.69;5008082;28;20433;-45
2022/06/08 05:53:16;;;;;;;1.95;0.93;;;;;;;16.88;72.62;98859.16;5005763;28;20042;-47
2022/06/08 05:55:44;;;;;;;10.00;5.45;;;;;;;16.94;72.51;98864.09;5009373;28;20494;-48
2022/06/08 05:58:11;;;;;;;11.05;5.97;;;;;;;17.03;72.42;98861.94;5007866;28;20046;-43
2022/06/08 06:00:40;;;;;;;7.00;3.90;;;;;;;17.11;72.39;98862.44;5007364;28;20161;-47
2022/06/08 06:03:08;;;;;;;7.03;4.13;;;;;;;17.18;71.98;98866.47;5006071;28;20084;-47
2022/06/08 06:05:38;;;;;;;15.85;8.27;;;;;;;17.20;72.01;98858.53;5009746;28;20662;-43
2022/06/08 06:08:06;;;;;;;39.55;18.50;;;;;;;17.20;72.39;98862.00;4990773;28;20050;-46
2022/06/08 06:10:34;;;;;;;41.80;18.50;;;;;;;17.23;71.93;98862.78;5006845;28;20062;-46
2022/06/08 06:13:00;;;;;;;13.93;7.18;;;;;;;17.29;71.41;98862.47;5004250;28;20525;-47
2022/06/08 06:15:27;;;;;;;6.93;2.90;;;;;;;17.37;72.08;98857.72;5007515;28;20071;-47
2022/06/08 06:17:54;;;;;;;7.05;2.45;;;;;;;17.45;71.92;98852.94;5009393;28;20085;-48
2022/06/08 06:20:21;;;;;;;3.65;1.80;;;;;;;17.53;71.21;98867.41;5007204;28;20099;-47
2022/06/08 06:22:47;;;;;;;4.63;1.95;;;;;;;17.55;71.53;98860.31;5008304;28;20082;-45
2022/06/08 06:25:14;;;;;;;8.10;2.03;;;;;;;17.60;71.26;98860.94;5009318;28;20780;-50
2022/06/08 06:27:41;;;;;;;8.25;3.75;;;;;;;17.66;71.42;98865.84;5000557;28;20100;-48
2022/06/08 06:30:08;;;;;;;3.75;1.30;;;;;;;17.72;70.84;98875.16;5003442;28;20050;-44
2022/06/08 06:32:37;;;;;;;6.00;1.20;;;;;;;17.84;70.99;98873.69;5003485;28;20050;-50
2022/06/08 06:35:08;;;;;;;2.38;1.30;;;;;;;17.99;71.64;98878.13;5001137;28;20090;-43
2022/06/08 06:37:35;;;;;;;4.40;1.23;;;;;;;18.10;70.77;98867.09;4998591;28;20045;-48
2022/06/08 06:40:03;;;;;;;2.00;1.27;;;;;;;18.22;70.42;98873.47;5002122;28;20049;-47
2022/06/08 06:42:32;;;;;;;4.38;2.92;;;;;;;18.28;69.75;98874.06;4997143;28;20435;-46
2022/06/08 06:44:58;;;;;;;3.30;1.13;;;;;;;18.38;70.19;98877.88;5000186;28;20080;-48
2022/06/08 06:47:25;;;;;;;4.95;1.30;;;;;;;18.60;70.58;98872.31;4995851;28;20050;-52
2022/06/08 06:49:52;;;;;;;3.53;1.45;;;;;;;18.87;70.14;98883.97;5002048;28;20061;-46
2022/06/08 06:52:18;;;;;;;3.83;2.75;;;;;;;19.06;68.85;98888.19;4998122;28;20445;-51
2022/06/08 06:54:46;;;;;;;4.53;1.50;;;;;;;19.15;68.41;98869.31;4995520;28;20064;-49
2022/06/08 06:57:13;;;;;;;4.07;1.77;;;;;;;19.25;67.93;98883.59;4998225;28;20054;-45
2022/06/08 06:59:41;;;;;;;5.00;1.65;;;;;;;19.31;68.44;98881.53;4994184;28;20050;-45
2022/06/08 07:02:19;;;;;;;5.25;1.30;;;;;;;19.53;68.24;98887.25;5001109;28;20045;-47
2022/06/08 07:04:46;;;;;;;3.70;1.02;;;;;;;19.65;67.28;98890.06;4998466;28;20050;-49
2022/06/08 07:07:14;;;;;;;3.45;3.10;;;;;;;19.68;66.37;98884.66;5002463;28;20453;-48
2022/06/08 07:09:42;;;;;;;4.22;1.33;;;;;;;19.68;65.59;98895.16;5003373;28;20521;-50
2022/06/08 07:12:12;;;;;;;25.75;10.23;;;;;;;19.67;66.21;98895.25;5005491;28;20433;-51
2022/06/08 07:14:40;;;;;;;21.10;6.50;;;;;;;19.78;66.57;98891.06;5002663;28;20055;-49
2022/06/08 07:17:06;;;;;;;25.65;8.38;;;;;;;19.97;66.60;98895.22;4998946;28;20051;-48
2022/06/08 07:19:33;;;;;;;5.22;1.60;;;;;;;20.12;66.21;98889.97;5001944;28;20057;-49
2022/06/08 07:22:00;;;;;;;5.03;1.38;;;;;;;20.32;66.18;98893.16;4998371;28;20490;-45
2022/06/08 07:24:30;;;;;;;5.25;2.17;;;;;;;20.60;65.94;98886.19;4998882;28;20540;-45
2022/06/08 07:26:58;;;;;;;5.13;1.40;;;;;;;20.90;65.60;98893.06;4997692;28;20061;-45
2022/06/08 07:29:24;;;;;;;2.92;1.08;;;;;;;21.27;65.41;98898.56;4998650;28;20054;-50
2022/06/08 07:31:51;;;;;;;3.97;1.55;;;;;;;21.55;64.63;98901.19;4995819;28;20902;-46
2022/06/08 07:34:18;;;;;;;3.80;1.50;;;;;;;21.86;65.02;98896.50;5001957;28;20053;-49
2022/06/08 07:36:45;;;;;;;2.22;0.40;;;;;;;22.12;61.76;98904.38;4999373;28;20057;-47
2022/06/08 07:39:15;;;;;;;4.25;0.95;;;;;;;22.22;61.70;98912.50;5005525;28;20474;-48
2022/06/08 07:41:44;;;;;;;3.63;0.60;;;;;;;22.30;60.83;98915.47;5001351;28;20074;-49
2022/06/08 07:44:11;;;;;;;2.30;0.50;;;;;;;22.57;59.83;98906.56;5007366;28;20042;-52
2022/06/08 07:46:38;;;;;;;3.55;0.60;;;;;;;22.70;58.51;98905.69;5006579;28;20050;-53
2022/06/08 07:51:53;;;;;;;2.25;0.82;;;;;;;23.14;58.25;98907.84;5004481;28;20394;-44
2022/06/08 07:54:22;;;;;;;2.30;0.80;;;;;;;23.32;57.69;98911.75;5009865;28;20049;-52
2022/06/08 07:56:51;;;;;;;2.90;0.70;;;;;;;23.40;57.54;98902.47;5005848;28;20053;-52
2022/06/08 07:59:19;;;;;;;2.10;1.05;;;;;;;23.27;55.96;98908.59;4991672;28;20375;-46
2022/06/08 08:01:45;;;;;;;2.58;1.02;;;;;;;23.06;56.26;98906.59;5007789;28;20050;-44
2022/06/08 08:04:12;;;;;;;3.45;1.23;;;;;;;22.97;56.64;98902.00;5010019;28;20153;-45
2022/06/08 08:06:39;;;;;;;3.13;1.20;;;;;;;23.06;57.15;98901.31;5005615;28;20050;-45
2022/06/08 08:09:13;;;;;;;6.60;2.58;;;;;;;23.40;57.79;98899.81;5006248;28;20048;-45
2022/06/08 08:11:40;;;;;;;4.53;1.60;;;;;;;23.77;56.46;98906.75;5006582;28;20494;-51
2022/06/08 08:14:07;;;;;;;11.50;3.15;;;;;;;23.85;55.40;98909.66;5009964;28;20053;-45
2022/06/08 08:16:33;;;;;;;6.38;1.85;;;;;;;23.78;55.19;98901.34;5004572;28;20057;-48
2022/06/08 08:19:00;;;;;;;6.63;2.38;;;;;;;23.69;55.13;98907.31;5007901;28;20054;-47
2022/06/08 08:21:27;;;;;;;5.82;1.17;;;;;;;23.64;53.95;98905.03;5009243;28;20552;-49
2022/06/08 08:23:53;;;;;;;2.17;0.90;;;;;;;23.55;54.04;98900.44;5011422;28;20050;-49
2022/06/08 08:26:20;;;;;;;1.75;0.90;;;;;;;23.39;53.96;98900.75;5010532;28;20050;-50
2022/06/08 08:28:46;;;;;;;3.30;0.70;;;;;;;23.34;54.50;98899.25;5011267;28;20045;-51
2022/06/08 08:31:14;;;;;;;1.95;0.80;;;;;;;23.35;54.89;98898.34;5009086;28;20045;-46
2022/06/08 08:33:40;;;;;;;3.40;1.10;;;;;;;23.44;54.85;98914.47;5006526;28;20078;-47
2022/06/08 08:36:07;;;;;;;1.58;0.50;;;;;;;23.69;55.11;98917.91;5008618;28;20107;-46
2022/06/08 08:38:34;;;;;;;2.78;0.73;;;;;;;23.95;54.52;98907.13;5010997;28;20559;-48
2022/06/08 08:41:02;;;;;;;1.92;1.13;;;;;;;24.06;52.93;98909.78;5009584;28;20524;-47
2022/06/08 08:43:34;;;;;;;1.52;0.30;;;;;;;23.94;51.10;98916.88;5009414;28;20056;-48
2022/06/08 08:46:29;;;;;;;0.80;0.22;;;;;;;23.56;50.83;98908.25;5009086;28;20111;-44
2022/06/08 08:59:30;;;;;;;2.30;0.95;;;;;;;22.64;53.42;98912.25;5063769;27;20416;-48
2022/06/08 09:01:58;;;;;;;2.00;0.57;;;;;;;22.71;53.90;98915.28;5047179;28;20044;-47
2022/06/08 09:04:32;;;;;;;2.42;0.88;;;;;;;22.81;52.79;98912.81;5058311;28;20059;-47
2022/06/08 09:07:12;;;;;;;0.85;0.50;;;;;;;22.94;52.91;98913.63;5083391;28;20074;-47
2022/06/08 09:09:38;;;;;;;2.15;0.50;;;;;;;22.96;52.89;98908.22;5056858;28;20041;-46
2022/06/08 09:12:10;;;;;;;2.70;1.13;;;;;;;22.92;52.27;98909.41;5053608;28;20060;-41
2022/06/08 09:15:00;;;;;;;5.75;1.27;;;;;;;22.93;52.80;98905.81;5081122;28;20082;-44
2022/06/08 09:17:34;;;;;;;1.70;0.57;;;;;;;22.99;52.73;98905.34;5074285;28;20097;-46
2022/06/08 09:20:20;;;;;;;1.27;0.40;;;;;;;23.13;52.19;98911.44;5067708;28;20052;-44
2022/06/08 09:22:49;;;;;;;2.80;0.50;;;;;;;23.23;52.34;98912.44;5077975;28;20045;-43
2022/06/08 09:30:52;;;;;;;2.08;0.88;;;;;;;24.32;52.07;98909.56;5092608;27;20417;-45
2022/06/08 09:33:26;;;;;;;1.55;0.47;;;;;;;24.51;50.53;98901.03;5043578;28;20053;-47
2022/06/08 09:35:56;;;;;;;1.88;0.52;;;;;;;24.76;51.22;98901.69;5045642;28;20045;-44
2022/06/08 09:38:25;;;;;;;4.15;0.68;;;;;;;25.07;50.18;98914.28;5036588;28;20049;-45
2022/06/08 15:04:15;;;;;;;1.75;0.57;;;;;;;22.51;48.13;99070.53;5038644;27;20407;-45
2022/06/08 15:06:44;;;;;;;0.70;0.50;;;;;;;22.60;49.39;99059.38;5018860;28;20172;-44
2022/06/08 15:09:11;;;;;;;2.30;1.52;;;;;;;22.67;48.48;99064.25;5022159;28;20054;-50
2022/06/08 15:17:27;;;;;;;0.93;0.40;;;;;;;23.09;49.41;99058.69;5134120;27;20456;-47
2022/06/08 15:19:57;;;;;;;1.92;0.50;;;;;;;23.29;49.18;99070.47;5104189;27;20468;-45
2022/06/08 15:22:28;;;;;;;3.40;0.30;;;;;;;23.40;49.13;99060.97;5108744;27;20071;-49
2022/06/08 15:24:56;;;;;;;1.63;0.43;;;;;;;23.50;48.63;99072.53;5101211;28;20058;-45
2022/06/08 15:27:28;;;;;;;1.52;0.63;;;;;;;23.54;49.33;99074.00;5104464;28;20043;-52
2022/06/08 15:29:55;;;;;;;2.63;0.57;;;;;;;23.54;48.60;99073.19;5103064;27;20047;-45
2022/06/08 15:32:25;;;;;;;1.08;0.57;;;;;;;23.55;48.88;99070.44;5098851;28;20055;-47
2022/06/08 15:34:55;;;;;;;2.97;0.75;;;;;;;23.58;48.73;99072.00;5095031;28;20112;-44
2022/06/08 15:37:27;;;;;;;4.38;0.63;;;;;;;23.68;49.24;99075.66;5099392;28;20472;-47
2022/06/08 15:39:55;;;;;;;2.38;0.52;;;;;;;23.80;49.48;99084.47;5101290;27;20453;-45
2022/06/08 15:42:24;;;;;;;3.70;0.50;;;;;;;23.92;48.46;99081.88;5099824;27;20507;-45
2022/06/08 15:44:51;;;;;;;1.60;0.32;;;;;;;23.96;49.07;99086.84;5097588;28;20043;-47
2022/06/08 15:47:24;;;;;;;1.38;0.77;;;;;;;23.99;48.07;99073.38;5102765;27;20460;-45
2022/06/08 15:49:53;;;;;;;1.10;0.73;;;;;;;24.01;48.57;99079.38;5097582;28;20509;-43
2022/06/08 15:52:23;;;;;;;;;;;;;;;23.87;48.19;99083.06;5100860;27;20044;-48
2022/06/08 15:54:57;;;;;;;3.90;0.50;;;;;;;24.08;48.33;99085.06;5096914;28;19924;-44
2022/06/08 15:57:24;;;;;;;2.13;0.68;;;;;;;24.15;47.64;99082.00;5097757;27;20051;-48
2022/06/08 15:59:57;;;;;;;3.03;0.77;;;;;;;24.13;46.21;99080.31;5093823;27;20101;-47
2022/06/08 16:02:23;;;;;;;1.65;0.73;;;;;;;24.11;46.98;99082.22;5096676;28;20048;-45
2022/06/08 16:04:51;;;;;;;1.70;0.73;;;;;;;24.11;46.19;99084.88;5102481;27;20089;-43
2022/06/08 16:07:18;;;;;;;5.03;0.80;;;;;;;24.20;46.45;99085.13;5104501;27;20096;-45
2022/06/08 16:09:44;;;;;;;2.60;0.65;;;;;;;24.33;46.80;99080.59;5096600;28;20056;-48
2022/06/08 16:12:12;;;;;;;3.50;0.80;;;;;;;24.37;45.86;99092.63;5101914;27;20063;-45
2022/06/08 16:14:40;;;;;;;2.85;0.47;;;;;;;24.34;46.02;99089.38;5103043;27;20052;-43
2022/06/08 16:17:14;;;;;;;3.40;1.05;;;;;;;24.27;45.31;99086.34;5097292;28;20891;-45
2022/06/08 16:19:43;;;;;;;4.07;0.80;;;;;;;24.14;45.26;99081.13;5100058;28;20051;-48
2022/06/08 16:22:10;;;;;;;1.10;0.40;;;;;;;23.99;45.26;99085.75;5096228;27;20564;-45
2022/06/08 16:24:37;;;;;;;2.08;0.75;;;;;;;23.88;45.73;99082.09;5103843;27;20128;-43
2022/06/08 16:27:21;;;;;;;3.45;0.85;;;;;;;23.86;46.66;99078.75;5092482;28;20415;-45
2022/06/08 16:29:48;;;;;;;2.55;0.50;;;;;;;23.92;46.04;99080.09;5083868;28;20093;-50
2022/06/08 16:32:15;;;;;;;4.18;1.17;;;;;;;23.96;45.86;99088.63;5081521;28;20101;-45
2022/06/08 16:34:42;;;;;;;1.63;0.70;;;;;;;23.94;45.95;99093.19;5083833;28;20063;-45
2022/06/08 16:37:09;;;;;;;3.30;0.77;;;;;;;23.85;45.56;99092.06;5084576;28;20052;-51
2022/06/08 16:39:37;;;;;;;3.30;0.40;;;;;;;23.80;46.27;99092.41;5092249;28;20052;-48
2022/06/08 16:42:04;;;;;;;1.85;0.28;;;;;;;23.81;45.95;99096.72;5092312;27;20056;-46
2022/06/08 16:44:30;;;;;;;3.15;0.43;;;;;;;23.85;45.73;99092.91;5097653;28;20056;-49
2022/06/08 16:46:57;;;;;;;3.80;0.40;;;;;;;23.87;45.05;99088.34;5088512;28;20048;-46
2022/06/08 16:49:24;;;;;;;2.63;0.60;;;;;;;23.85;45.79;99098.19;5093067;28;20058;-43
2022/06/08 16:51:51;;;;;;;1.90;0.47;;;;;;;23.75;44.67;99097.19;5086454;28;20047;-44
2022/06/08 16:54:18;;;;;;;1.60;0.73;;;;;;;23.64;44.40;99094.50;5083188;28;20930;-46
2022/06/08 16:59:41;;;;;;;1.65;0.50;;;;;;;23.51;45.44;99099.81;5087229;28;20451;-45
2022/06/08 17:02:12;;;;;;;3.00;0.57;;;;;;;23.50;45.53;99098.97;5086230;27;20044;-47
2022/06/08 17:04:41;;;;;;;3.75;0.60;;;;;;;23.43;45.58;99105.63;5087372;27;20055;-45
2022/06/08 17:07:10;;;;;;;2.08;0.52;;;;;;;23.33;46.06;99097.50;5084032;27;20097;-44
2022/06/08 17:09:39;;;;;;;2.72;0.40;;;;;;;23.24;45.83;99105.13;5076781;28;20134;-48
2022/06/08 17:12:07;;;;;;;3.40;1.25;;;;;;;23.15;46.09;99099.66;5071657;28;20063;-44
2022/06/08 17:14:37;;;;;;;2.70;0.50;;;;;;;23.05;45.97;99100.31;5087149;28;20897;-50
2022/06/08 17:17:09;;;;;;;5.25;1.05;;;;;;;22.98;46.34;99104.34;5075169;28;20461;-46
2022/06/08 17:19:36;;;;;;;2.55;1.08;;;;;;;22.83;47.02;99107.09;5088142;28;20084;-47
2022/06/08 17:22:03;;;;;;;1.98;0.60;;;;;;;22.75;46.91;99119.97;5091450;28;20511;-48
2022/06/08 17:24:30;;;;;;;4.43;0.95;;;;;;;22.73;47.69;99116.63;5090783;28;20698;-52
2022/06/08 17:26:58;;;;;;;2.78;1.08;;;;;;;22.72;47.71;99117.53;5093048;28;20052;-52
2022/06/08 17:29:25;;;;;;;3.50;0.60;;;;;;;22.69;48.33;99121.25;5092651;28;20066;-47
2022/06/08 17:31:51;;;;;;;2.20;0.60;;;;;;;22.64;47.95;99118.09;5094543;28;20486;-47
2022/06/08 17:34:18;;;;;;;4.97;0.52;;;;;;;22.59;48.06;99128.94;5089436;28;20084;-48
2022/06/08 17:36:45;;;;;;;2.67;0.55;;;;;;;22.56;47.99;99121.22;5090976;28;20094;-51
2022/06/08 17:39:12;;;;;;;4.10;0.60;;;;;;;22.63;48.25;99131.38;5090643;28;20782;-46
2022/06/08 17:41:40;;;;;;;2.75;0.70;;;;;;;22.71;48.37;99140.47;5087934;28;20403;-44
2022/06/08 17:44:06;;;;;;;3.03;0.40;;;;;;;22.73;48.60;99127.16;5089947;27;20097;-45
2022/06/08 17:46:34;;;;;;;2.80;0.95;;;;;;;22.69;48.16;99142.34;5091063;27;20044;-43
2022/06/08 17:49:02;;;;;;;4.18;0.55;;;;;;;22.63;48.46;99149.84;5092352;28;20046;-44
2022/06/08 17:51:28;;;;;;;2.28;0.80;;;;;;;22.56;48.22;99152.88;5094050;28;20365;-46
2022/06/08 17:53:55;;;;;;;3.22;0.88;;;;;;;22.52;48.86;99158.47;5090785;27;20051;-48
2022/06/08 17:56:22;;;;;;;2.13;0.57;;;;;;;22.50;47.77;99158.56;5089535;28;20040;-51
2022/06/08 17:58:49;;;;;;;5.13;0.90;;;;;;;22.45;48.50;99158.00;5093773;28;20676;-51
2022/06/08 18:01:16;;;;;;;3.55;0.68;;;;;;;22.40;48.37;99165.41;5093346;28;20557;-45
2022/06/08 18:03:42;;;;;;;6.88;0.30;;;;;;;22.31;48.16;99165.06;5089494;28;20048;-49
2022/06/08 18:06:11;;;;;;;3.10;0.60;;;;;;;22.25;47.91;99162.81;5092685;28;20043;-50
2022/06/08 18:08:38;;;;;;;2.92;0.50;;;;;;;22.18;47.96;99166.81;5089433;28;20059;-49
2022/06/08 18:13:52;;;;;;;8.15;0.68;;;;;;;21.95;48.36;99182.31;5082720;28;20071;-49
2022/06/08 18:16:19;;;;;;;1.85;0.63;;;;;;;21.89;49.23;99185.38;5087264;28;20051;-53
2022/06/08 18:18:46;;;;;;;4.20;0.80;;;;;;;21.82;49.36;99185.75;5091756;28;20039;-51
2022/06/08 18:21:17;;;;;;;1.95;0.52;;;;;;;21.77;48.42;99187.84;5085271;28;20074;-46
2022/06/08 18:23:44;;;;;;;1.45;0.80;;;;;;;21.74;48.91;99192.44;5090689;28;20048;-48